sensor_id;sensor_type;location;lat;lon;timestamp;P1;durP1;ratioP1;P2;durP2;ratioP2
45806;SDS011;31507;51.494;7.518;2023-02-01T00:01:46;42.25;;;21.63;;
45806;SDS011;31507;51.494;7.518;2023-02-01T00:04:11;52.20;;;20.30;;
45806;SDS011;31507;51.494;7.518;2023-02-01T00:06:37;41.33;;;19.85;;
45806;SDS011;31507;51.494;7.518;2023-02-01T00:09:03;44.95;;;17.23;;
45806;SDS011;31507;51.494;7.518;2023-02-01T00:11:28;40.90;;;17.13;;
45806;SDS011;31507;51.494;7.518;2023-02-01T00:13:54;44.33;;;17.20;;
45806;SDS011;31507;51.494;7.518;2023-02-01T00:16:22;36.40;;;14.70;;
45806;SDS011;31507;51.494;7.518;2023-02-01T00:18:52;31.65;;;14.63;;
45806;SDS011;31507;51.494;7.518;2023-02-01T00:21:28;37.20;;;14.00;;
45806;SDS011;31507;51.494;7.518;2023-02-01T00:23:55;35.42;;;13.38;;
45806;SDS011;31507;51.494;7.518;2023-02-01T00:28:56;32.38;;;12.43;;
45806;SDS011;31507;51.494;7.518;2023-02-01T00:31:22;39.05;;;12.93;;
45806;SDS011;31507;51.494;7.518;2023-02-01T00:33:47;29.05;;;11.00;;
45806;SDS011;31507;51.494;7.518;2023-02-01T00:36:14;23.73;;;9.90;;
45806;SDS011;31507;51.494;7.518;2023-02-01T00:38:39;27.95;;;11.07;;
45806;SDS011;31507;51.494;7.518;2023-02-01T00:41:15;27.20;;;10.02;;
45806;SDS011;31507;51.494;7.518;2023-02-01T00:43:42;29.70;;;9.13;;
45806;SDS011;31507;51.494;7.518;2023-02-01T00:46:09;25.88;;;8.40;;
45806;SDS011;31507;51.494;7.518;2023-02-01T00:48:36;27.30;;;8.48;;
45806;SDS011;31507;51.494;7.518;2023-02-01T00:51:03;28.38;;;8.38;;
45806;SDS011;31507;51.494;7.518;2023-02-01T00:53:33;27.50;;;7.13;;
45806;SDS011;31507;51.494;7.518;2023-02-01T00:55:59;31.20;;;7.72;;
45806;SDS011;31507;51.494;7.518;2023-02-01T00:58:25;23.48;;;7.18;;
45806;SDS011;31507;51.494;7.518;2023-02-01T01:03:32;24.63;;;6.97;;
45806;SDS011;31507;51.494;7.518;2023-02-01T01:05:59;21.75;;;5.15;;
45806;SDS011;31507;51.494;7.518;2023-02-01T01:08:27;27.55;;;6.03;;
45806;SDS011;31507;51.494;7.518;2023-02-01T01:10:52;26.13;;;6.15;;
45806;SDS011;31507;51.494;7.518;2023-02-01T01:13:18;24.15;;;5.63;;
45806;SDS011;31507;51.494;7.518;2023-02-01T01:15:44;24.77;;;5.25;;
45806;SDS011;31507;51.494;7.518;2023-02-01T01:18:09;19.98;;;5.22;;
45806;SDS011;31507;51.494;7.518;2023-02-01T01:20:36;20.08;;;5.03;;
45806;SDS011;31507;51.494;7.518;2023-02-01T01:23:03;24.83;;;5.43;;
45806;SDS011;31507;51.494;7.518;2023-02-01T01:25:29;17.60;;;5.20;;
45806;SDS011;31507;51.494;7.518;2023-02-01T01:27:55;24.45;;;4.63;;
45806;SDS011;31507;51.494;7.518;2023-02-01T01:30:21;15.30;;;4.50;;
45806;SDS011;31507;51.494;7.518;2023-02-01T01:32:46;18.00;;;4.40;;
45806;SDS011;31507;51.494;7.518;2023-02-01T01:35:12;22.95;;;4.32;;
45806;SDS011;31507;51.494;7.518;2023-02-01T01:37:38;26.70;;;5.63;;
45806;SDS011;31507;51.494;7.518;2023-02-01T01:40:04;26.05;;;4.78;;
45806;SDS011;31507;51.494;7.518;2023-02-01T01:42:32;21.85;;;5.75;;
45806;SDS011;31507;51.494;7.518;2023-02-01T01:45:19;25.27;;;5.43;;
45806;SDS011;31507;51.494;7.518;2023-02-01T01:47:50;20.33;;;4.93;;
45806;SDS011;31507;51.494;7.518;2023-02-01T01:50:21;27.52;;;5.28;;
45806;SDS011;31507;51.494;7.518;2023-02-01T01:52:54;20.67;;;5.15;;
45806;SDS011;31507;51.494;7.518;2023-02-01T01:55:24;32.03;;;6.75;;
45806;SDS011;31507;51.494;7.518;2023-02-01T01:57:55;32.20;;;6.47;;
45806;SDS011;31507;51.494;7.518;2023-02-01T02:00:31;26.55;;;6.15;;
45806;SDS011;31507;51.494;7.518;2023-02-01T02:02:58;18.85;;;5.85;;
45806;SDS011;31507;51.494;7.518;2023-02-01T02:05:28;25.23;;;5.47;;
45806;SDS011;31507;51.494;7.518;2023-02-01T02:07:56;22.48;;;5.20;;
45806;SDS011;31507;51.494;7.518;2023-02-01T02:10:25;28.35;;;5.20;;
45806;SDS011;31507;51.494;7.518;2023-02-01T02:13:10;22.17;;;5.53;;
45806;SDS011;31507;51.494;7.518;2023-02-01T02:15:38;27.88;;;6.30;;
45806;SDS011;31507;51.494;7.518;2023-02-01T02:18:24;17.13;;;5.70;;
45806;SDS011;31507;51.494;7.518;2023-02-01T02:35:30;21.45;;;6.10;;
45806;SDS011;31507;51.494;7.518;2023-02-01T02:40:42;25.13;;;5.70;;
45806;SDS011;31507;51.494;7.518;2023-02-01T02:43:43;20.58;;;5.15;;
45806;SDS011;31507;51.494;7.518;2023-02-01T02:46:36;31.85;;;7.25;;
45806;SDS011;31507;51.494;7.518;2023-02-01T02:49:29;26.98;;;6.32;;
45806;SDS011;31507;51.494;7.518;2023-02-01T02:52:02;26.65;;;5.72;;
45806;SDS011;31507;51.494;7.518;2023-02-01T02:54:53;25.48;;;6.72;;
45806;SDS011;31507;51.494;7.518;2023-02-01T02:57:53;23.52;;;6.90;;
45806;SDS011;31507;51.494;7.518;2023-02-01T03:00:31;22.65;;;5.30;;
45806;SDS011;31507;51.494;7.518;2023-02-01T03:03:17;26.88;;;5.25;;
45806;SDS011;31507;51.494;7.518;2023-02-01T03:06:01;22.20;;;5.05;;
45806;SDS011;31507;51.494;7.518;2023-02-01T03:08:27;28.17;;;5.20;;
45806;SDS011;31507;51.494;7.518;2023-02-01T03:11:06;25.02;;;5.25;;
45806;SDS011;31507;51.494;7.518;2023-02-01T03:18:55;22.27;;;5.60;;
45806;SDS011;31507;51.494;7.518;2023-02-01T03:27:24;20.83;;;4.45;;
45806;SDS011;31507;51.494;7.518;2023-02-01T03:32:17;22.35;;;4.13;;
45806;SDS011;31507;51.494;7.518;2023-02-01T03:34:43;24.00;;;4.93;;
45806;SDS011;31507;51.494;7.518;2023-02-01T03:37:11;25.83;;;4.82;;
45806;SDS011;31507;51.494;7.518;2023-02-01T03:39:48;25.83;;;4.93;;
45806;SDS011;31507;51.494;7.518;2023-02-01T03:45:03;18.23;;;4.13;;
45806;SDS011;31507;51.494;7.518;2023-02-01T03:47:34;20.00;;;4.50;;
45806;SDS011;31507;51.494;7.518;2023-02-01T03:50:05;20.92;;;4.60;;
45806;SDS011;31507;51.494;7.518;2023-02-01T03:52:42;17.75;;;4.38;;
45806;SDS011;31507;51.494;7.518;2023-02-01T03:55:14;25.05;;;4.32;;
45806;SDS011;31507;51.494;7.518;2023-02-01T03:57:43;20.00;;;3.78;;
45806;SDS011;31507;51.494;7.518;2023-02-01T04:00:16;28.85;;;5.75;;
45806;SDS011;31507;51.494;7.518;2023-02-01T04:02:48;24.98;;;4.38;;
45806;SDS011;31507;51.494;7.518;2023-02-01T04:05:14;20.85;;;5.00;;
45806;SDS011;31507;51.494;7.518;2023-02-01T04:07:39;22.95;;;4.68;;
45806;SDS011;31507;51.494;7.518;2023-02-01T04:10:06;27.45;;;4.18;;
45806;SDS011;31507;51.494;7.518;2023-02-01T04:12:32;23.85;;;4.85;;
45806;SDS011;31507;51.494;7.518;2023-02-01T04:14:57;19.02;;;4.65;;
45806;SDS011;31507;51.494;7.518;2023-02-01T04:17:23;24.92;;;5.28;;
45806;SDS011;31507;51.494;7.518;2023-02-01T04:19:49;20.98;;;4.18;;
45806;SDS011;31507;51.494;7.518;2023-02-01T04:22:15;21.58;;;4.43;;
45806;SDS011;31507;51.494;7.518;2023-02-01T04:24:40;21.98;;;4.55;;
45806;SDS011;31507;51.494;7.518;2023-02-01T04:27:06;22.52;;;4.50;;
45806;SDS011;31507;51.494;7.518;2023-02-01T04:29:32;18.70;;;3.53;;
45806;SDS011;31507;51.494;7.518;2023-02-01T04:31:58;20.92;;;3.95;;
45806;SDS011;31507;51.494;7.518;2023-02-01T04:34:23;16.38;;;4.10;;
45806;SDS011;31507;51.494;7.518;2023-02-01T04:36:50;18.05;;;4.18;;
45806;SDS011;31507;51.494;7.518;2023-02-01T04:39:16;20.77;;;4.68;;
45806;SDS011;31507;51.494;7.518;2023-02-01T04:41:41;16.15;;;3.50;;
45806;SDS011;31507;51.494;7.518;2023-02-01T04:44:09;26.20;;;4.90;;
45806;SDS011;31507;51.494;7.518;2023-02-01T04:46:38;29.67;;;4.70;;
45806;SDS011;31507;51.494;7.518;2023-02-01T04:49:04;23.33;;;4.30;;
45806;SDS011;31507;51.494;7.518;2023-02-01T04:51:29;25.25;;;4.90;;
45806;SDS011;31507;51.494;7.518;2023-02-01T04:53:55;25.48;;;5.43;;
45806;SDS011;31507;51.494;7.518;2023-02-01T04:56:21;25.13;;;4.25;;
45806;SDS011;31507;51.494;7.518;2023-02-01T04:58:47;31.20;;;6.03;;
45806;SDS011;31507;51.494;7.518;2023-02-01T05:01:12;28.33;;;5.05;;
45806;SDS011;31507;51.494;7.518;2023-02-01T05:03:38;28.63;;;5.13;;
45806;SDS011;31507;51.494;7.518;2023-02-01T05:06:04;27.00;;;5.97;;
45806;SDS011;31507;51.494;7.518;2023-02-01T05:08:30;25.90;;;4.93;;
45806;SDS011;31507;51.494;7.518;2023-02-01T05:10:56;33.92;;;5.78;;
45806;SDS011;31507;51.494;7.518;2023-02-01T05:13:23;19.80;;;5.57;;
45806;SDS011;31507;51.494;7.518;2023-02-01T05:16:25;19.33;;;4.75;;
45806;SDS011;31507;51.494;7.518;2023-02-01T05:18:51;23.05;;;4.10;;
45806;SDS011;31507;51.494;7.518;2023-02-01T05:21:18;31.92;;;6.18;;
45806;SDS011;31507;51.494;7.518;2023-02-01T05:23:43;31.10;;;5.70;;
45806;SDS011;31507;51.494;7.518;2023-02-01T05:26:27;23.05;;;5.95;;
45806;SDS011;31507;51.494;7.518;2023-02-01T05:28:53;26.38;;;5.22;;
45806;SDS011;31507;51.494;7.518;2023-02-01T05:31:19;22.38;;;4.80;;
45806;SDS011;31507;51.494;7.518;2023-02-01T05:33:45;29.23;;;5.75;;
45806;SDS011;31507;51.494;7.518;2023-02-01T05:36:10;26.65;;;5.25;;
45806;SDS011;31507;51.494;7.518;2023-02-01T05:38:36;24.80;;;5.57;;
45806;SDS011;31507;51.494;7.518;2023-02-01T05:41:02;27.38;;;5.85;;
45806;SDS011;31507;51.494;7.518;2023-02-01T05:43:27;25.27;;;5.22;;
45806;SDS011;31507;51.494;7.518;2023-02-01T05:45:53;25.52;;;5.28;;
45806;SDS011;31507;51.494;7.518;2023-02-01T05:48:19;36.53;;;5.25;;
45806;SDS011;31507;51.494;7.518;2023-02-01T05:50:44;26.13;;;5.43;;
45806;SDS011;31507;51.494;7.518;2023-02-01T05:53:10;25.35;;;5.35;;
45806;SDS011;31507;51.494;7.518;2023-02-01T05:55:36;31.65;;;4.82;;
45806;SDS011;31507;51.494;7.518;2023-02-01T05:58:02;29.75;;;5.88;;
45806;SDS011;31507;51.494;7.518;2023-02-01T06:00:29;24.92;;;5.85;;
45806;SDS011;31507;51.494;7.518;2023-02-01T06:02:55;29.00;;;4.90;;
45806;SDS011;31507;51.494;7.518;2023-02-01T06:05:20;30.20;;;5.68;;
45806;SDS011;31507;51.494;7.518;2023-02-01T06:07:46;31.08;;;5.90;;
45806;SDS011;31507;51.494;7.518;2023-02-01T06:10:12;26.92;;;5.43;;
45806;SDS011;31507;51.494;7.518;2023-02-01T06:12:37;20.65;;;5.32;;
45806;SDS011;31507;51.494;7.518;2023-02-01T06:15:03;29.63;;;5.55;;
45806;SDS011;31507;51.494;7.518;2023-02-01T06:17:30;21.17;;;5.47;;
45806;SDS011;31507;51.494;7.518;2023-02-01T06:19:55;22.90;;;4.97;;
45806;SDS011;31507;51.494;7.518;2023-02-01T06:22:21;28.15;;;6.07;;
45806;SDS011;31507;51.494;7.518;2023-02-01T06:24:47;24.90;;;5.03;;
45806;SDS011;31507;51.494;7.518;2023-02-01T06:27:13;32.75;;;6.53;;
45806;SDS011;31507;51.494;7.518;2023-02-01T06:29:39;33.03;;;5.68;;
45806;SDS011;31507;51.494;7.518;2023-02-01T06:32:05;26.35;;;5.78;;
45806;SDS011;31507;51.494;7.518;2023-02-01T06:34:30;22.10;;;5.20;;
45806;SDS011;31507;51.494;7.518;2023-02-01T06:36:56;36.17;;;5.70;;
45806;SDS011;31507;51.494;7.518;2023-02-01T06:39:22;21.55;;;4.47;;
45806;SDS011;31507;51.494;7.518;2023-02-01T06:41:48;29.52;;;4.93;;
45806;SDS011;31507;51.494;7.518;2023-02-01T06:44:14;22.88;;;4.43;;
45806;SDS011;31507;51.494;7.518;2023-02-01T06:46:40;27.73;;;4.78;;
45806;SDS011;31507;51.494;7.518;2023-02-01T06:49:06;27.23;;;5.65;;
45806;SDS011;31507;51.494;7.518;2023-02-01T06:51:32;32.13;;;6.13;;
45806;SDS011;31507;51.494;7.518;2023-02-01T06:53:58;24.75;;;5.10;;
45806;SDS011;31507;51.494;7.518;2023-02-01T06:56:23;26.50;;;5.40;;
45806;SDS011;31507;51.494;7.518;2023-02-01T06:58:49;28.05;;;5.20;;
45806;SDS011;31507;51.494;7.518;2023-02-01T07:01:15;29.70;;;5.30;;
45806;SDS011;31507;51.494;7.518;2023-02-01T07:03:41;28.27;;;5.97;;
45806;SDS011;31507;51.494;7.518;2023-02-01T07:06:07;35.42;;;6.15;;
45806;SDS011;31507;51.494;7.518;2023-02-01T07:08:35;20.08;;;5.05;;
45806;SDS011;31507;51.494;7.518;2023-02-01T07:11:02;30.08;;;5.45;;
45806;SDS011;31507;51.494;7.518;2023-02-01T07:13:29;25.80;;;4.85;;
45806;SDS011;31507;51.494;7.518;2023-02-01T07:15:57;27.25;;;5.55;;
45806;SDS011;31507;51.494;7.518;2023-02-01T07:18:29;22.08;;;4.50;;
45806;SDS011;31507;51.494;7.518;2023-02-01T07:20:55;22.17;;;5.00;;
45806;SDS011;31507;51.494;7.518;2023-02-01T07:23:21;28.17;;;5.38;;
45806;SDS011;31507;51.494;7.518;2023-02-01T07:25:47;28.45;;;6.75;;
45806;SDS011;31507;51.494;7.518;2023-02-01T07:28:13;28.80;;;5.00;;
45806;SDS011;31507;51.494;7.518;2023-02-01T07:30:39;28.48;;;5.63;;
45806;SDS011;31507;51.494;7.518;2023-02-01T07:33:06;26.08;;;5.88;;
45806;SDS011;31507;51.494;7.518;2023-02-01T07:35:32;25.45;;;5.22;;
45806;SDS011;31507;51.494;7.518;2023-02-01T07:37:57;26.67;;;4.72;;
45806;SDS011;31507;51.494;7.518;2023-02-01T07:40:24;25.92;;;5.32;;
45806;SDS011;31507;51.494;7.518;2023-02-01T07:42:54;30.25;;;6.63;;
45806;SDS011;31507;51.494;7.518;2023-02-01T07:45:20;21.42;;;4.63;;
45806;SDS011;31507;51.494;7.518;2023-02-01T07:47:46;26.02;;;5.70;;
45806;SDS011;31507;51.494;7.518;2023-02-01T07:50:12;21.17;;;4.72;;
45806;SDS011;31507;51.494;7.518;2023-02-01T07:52:38;26.55;;;5.20;;
45806;SDS011;31507;51.494;7.518;2023-02-01T07:55:05;25.35;;;5.07;;
45806;SDS011;31507;51.494;7.518;2023-02-01T07:57:31;21.58;;;5.60;;
45806;SDS011;31507;51.494;7.518;2023-02-01T07:59:56;39.80;;;6.43;;
45806;SDS011;31507;51.494;7.518;2023-02-01T08:02:40;30.83;;;5.22;;
45806;SDS011;31507;51.494;7.518;2023-02-01T08:05:06;34.58;;;5.13;;
45806;SDS011;31507;51.494;7.518;2023-02-01T08:07:32;31.48;;;5.72;;
45806;SDS011;31507;51.494;7.518;2023-02-01T08:09:58;30.58;;;6.35;;
45806;SDS011;31507;51.494;7.518;2023-02-01T08:12:24;29.30;;;5.70;;
45806;SDS011;31507;51.494;7.518;2023-02-01T08:14:51;21.13;;;5.40;;
45806;SDS011;31507;51.494;7.518;2023-02-01T08:17:18;23.27;;;4.78;;
45806;SDS011;31507;51.494;7.518;2023-02-01T08:19:44;31.13;;;6.35;;
45806;SDS011;31507;51.494;7.518;2023-02-01T08:22:09;29.40;;;5.85;;
45806;SDS011;31507;51.494;7.518;2023-02-01T08:24:35;27.67;;;5.82;;
45806;SDS011;31507;51.494;7.518;2023-02-01T08:27:04;34.50;;;6.80;;
45806;SDS011;31507;51.494;7.518;2023-02-01T08:29:29;30.73;;;6.97;;
45806;SDS011;31507;51.494;7.518;2023-02-01T08:31:55;27.60;;;5.88;;
45806;SDS011;31507;51.494;7.518;2023-02-01T08:34:21;23.52;;;6.18;;
45806;SDS011;31507;51.494;7.518;2023-02-01T08:36:47;27.45;;;6.35;;
45806;SDS011;31507;51.494;7.518;2023-02-01T08:39:12;34.53;;;7.32;;
45806;SDS011;31507;51.494;7.518;2023-02-01T08:41:38;35.63;;;5.72;;
45806;SDS011;31507;51.494;7.518;2023-02-01T08:44:04;35.20;;;6.55;;
45806;SDS011;31507;51.494;7.518;2023-02-01T08:46:30;24.23;;;6.05;;
45806;SDS011;31507;51.494;7.518;2023-02-01T08:48:56;26.98;;;6.60;;
45806;SDS011;31507;51.494;7.518;2023-02-01T08:51:22;26.50;;;6.40;;
45806;SDS011;31507;51.494;7.518;2023-02-01T08:53:49;32.30;;;6.55;;
45806;SDS011;31507;51.494;7.518;2023-02-01T08:56:15;27.05;;;6.03;;
45806;SDS011;31507;51.494;7.518;2023-02-01T08:58:41;28.33;;;6.25;;
45806;SDS011;31507;51.494;7.518;2023-02-01T09:01:12;29.40;;;6.45;;
45806;SDS011;31507;51.494;7.518;2023-02-01T09:03:39;28.90;;;5.80;;
45806;SDS011;31507;51.494;7.518;2023-02-01T09:06:06;31.95;;;6.47;;
45806;SDS011;31507;51.494;7.518;2023-02-01T09:08:35;34.65;;;7.50;;
45806;SDS011;31507;51.494;7.518;2023-02-01T09:11:02;27.55;;;6.63;;
45806;SDS011;31507;51.494;7.518;2023-02-01T09:13:29;34.05;;;7.45;;
45806;SDS011;31507;51.494;7.518;2023-02-01T09:15:55;25.20;;;5.43;;
45806;SDS011;31507;51.494;7.518;2023-02-01T09:18:21;25.85;;;5.80;;
45806;SDS011;31507;51.494;7.518;2023-02-01T09:20:46;30.40;;;5.78;;
45806;SDS011;31507;51.494;7.518;2023-02-01T09:23:12;33.78;;;6.68;;
45806;SDS011;31507;51.494;7.518;2023-02-01T09:25:37;37.85;;;6.82;;
45806;SDS011;31507;51.494;7.518;2023-02-01T09:28:03;21.50;;;4.80;;
45806;SDS011;31507;51.494;7.518;2023-02-01T09:30:34;27.52;;;6.50;;
45806;SDS011;31507;51.494;7.518;2023-02-01T09:33:01;30.75;;;5.88;;
45806;SDS011;31507;51.494;7.518;2023-02-01T09:35:27;28.30;;;5.68;;
45806;SDS011;31507;51.494;7.518;2023-02-01T09:37:53;24.50;;;5.32;;
45806;SDS011;31507;51.494;7.518;2023-02-01T09:40:18;32.42;;;5.93;;
45806;SDS011;31507;51.494;7.518;2023-02-01T09:48:11;27.17;;;5.40;;
45806;SDS011;31507;51.494;7.518;2023-02-01T09:50:42;30.67;;;6.55;;
45806;SDS011;31507;51.494;7.518;2023-02-01T09:53:18;24.50;;;5.72;;
45806;SDS011;31507;51.494;7.518;2023-02-01T09:55:53;30.05;;;5.95;;
45806;SDS011;31507;51.494;7.518;2023-02-01T10:01:10;30.13;;;7.25;;
45806;SDS011;31507;51.494;7.518;2023-02-01T10:03:43;27.65;;;6.05;;
45806;SDS011;31507;51.494;7.518;2023-02-01T10:06:30;24.45;;;5.68;;
45806;SDS011;31507;51.494;7.518;2023-02-01T10:11:53;22.60;;;5.18;;
45806;SDS011;31507;51.494;7.518;2023-02-01T10:14:33;22.40;;;5.25;;
45806;SDS011;31507;51.494;7.518;2023-02-01T10:22:03;25.80;;;5.70;;
45806;SDS011;31507;51.494;7.518;2023-02-01T10:27:17;26.83;;;5.47;;
45806;SDS011;31507;51.494;7.518;2023-02-01T10:29:47;30.90;;;5.82;;
45806;SDS011;31507;51.494;7.518;2023-02-01T10:32:20;19.20;;;4.93;;
45806;SDS011;31507;51.494;7.518;2023-02-01T10:34:49;17.98;;;4.03;;
45806;SDS011;31507;51.494;7.518;2023-02-01T10:40:32;31.13;;;6.28;;
45806;SDS011;31507;51.494;7.518;2023-02-01T10:42:51;28.00;;;6.15;;
45806;SDS011;31507;51.494;7.518;2023-02-01T10:45:20;26.85;;;5.80;;
45806;SDS011;31507;51.494;7.518;2023-02-01T10:47:50;27.63;;;6.35;;
45806;SDS011;31507;51.494;7.518;2023-02-01T10:50:22;29.77;;;6.07;;
45806;SDS011;31507;51.494;7.518;2023-02-01T10:53:15;23.83;;;6.13;;
45806;SDS011;31507;51.494;7.518;2023-02-01T10:58:17;28.33;;;6.32;;
45806;SDS011;31507;51.494;7.518;2023-02-01T11:00:58;32.13;;;5.57;;
45806;SDS011;31507;51.494;7.518;2023-02-01T11:06:30;27.90;;;5.78;;
45806;SDS011;31507;51.494;7.518;2023-02-01T11:11:31;24.20;;;5.95;;
45806;SDS011;31507;51.494;7.518;2023-02-01T11:13:58;30.85;;;5.32;;
45806;SDS011;31507;51.494;7.518;2023-02-01T11:17:12;24.23;;;5.32;;
45806;SDS011;31507;51.494;7.518;2023-02-01T11:19:18;24.80;;;5.53;;
45806;SDS011;31507;51.494;7.518;2023-02-01T11:21:48;17.80;;;4.30;;
45806;SDS011;31507;51.494;7.518;2023-02-01T11:24:23;23.40;;;5.28;;
45806;SDS011;31507;51.494;7.518;2023-02-01T11:26:58;29.58;;;6.22;;
45806;SDS011;31507;51.494;7.518;2023-02-01T11:29:35;25.15;;;5.68;;
45806;SDS011;31507;51.494;7.518;2023-02-01T11:32:03;23.27;;;5.03;;
45806;SDS011;31507;51.494;7.518;2023-02-01T11:37:28;27.35;;;4.88;;
45806;SDS011;31507;51.494;7.518;2023-02-01T11:39:58;30.50;;;5.65;;
45806;SDS011;31507;51.494;7.518;2023-02-01T11:42:26;25.58;;;4.72;;
45806;SDS011;31507;51.494;7.518;2023-02-01T11:47:51;27.80;;;5.53;;
45806;SDS011;31507;51.494;7.518;2023-02-01T11:50:18;25.67;;;5.30;;
45806;SDS011;31507;51.494;7.518;2023-02-01T11:52:57;25.60;;;5.47;;
45806;SDS011;31507;51.494;7.518;2023-02-01T12:11:54;27.40;;;5.47;;
45806;SDS011;31507;51.494;7.518;2023-02-01T12:14:30;23.90;;;5.43;;
45806;SDS011;31507;51.494;7.518;2023-02-01T12:20:12;26.60;;;4.43;;
45806;SDS011;31507;51.494;7.518;2023-02-01T12:22:48;28.42;;;5.78;;
45806;SDS011;31507;51.494;7.518;2023-02-01T12:52:32;25.95;;;5.25;;
45806;SDS011;31507;51.494;7.518;2023-02-01T12:55:23;26.73;;;5.32;;
45806;SDS011;31507;51.494;7.518;2023-02-01T13:00:49;24.83;;;6.38;;
45806;SDS011;31507;51.494;7.518;2023-02-01T13:03:27;28.40;;;5.87;;
45806;SDS011;31507;51.494;7.518;2023-02-01T13:06:13;35.05;;;5.57;;
45806;SDS011;31507;51.494;7.518;2023-02-01T13:11:36;24.98;;;5.10;;
45806;SDS011;31507;51.494;7.518;2023-02-01T13:14:22;33.55;;;5.38;;
45806;SDS011;31507;51.494;7.518;2023-02-01T13:16:56;23.00;;;6.05;;
45806;SDS011;31507;51.494;7.518;2023-02-01T13:22:03;25.20;;;5.65;;
45806;SDS011;31507;51.494;7.518;2023-02-01T13:24:39;22.60;;;5.65;;
45806;SDS011;31507;51.494;7.518;2023-02-01T13:27:14;28.77;;;4.75;;
45806;SDS011;31507;51.494;7.518;2023-02-01T13:29:46;29.73;;;5.72;;
45806;SDS011;31507;51.494;7.518;2023-02-01T13:38:09;26.83;;;5.95;;
45806;SDS011;31507;51.494;7.518;2023-02-01T13:40:46;31.00;;;5.63;;
45806;SDS011;31507;51.494;7.518;2023-02-01T13:43:33;25.25;;;4.97;;
45806;SDS011;31507;51.494;7.518;2023-02-01T13:46:04;22.27;;;5.40;;
45806;SDS011;31507;51.494;7.518;2023-02-01T13:51:03;19.40;;;5.30;;
45806;SDS011;31507;51.494;7.518;2023-02-01T13:53:30;18.55;;;3.97;;
45806;SDS011;31507;51.494;7.518;2023-02-01T13:58:39;22.85;;;4.43;;
45806;SDS011;31507;51.494;7.518;2023-02-01T14:03:48;21.85;;;4.65;;
45806;SDS011;31507;51.494;7.518;2023-02-01T14:11:37;16.55;;;4.35;;
45806;SDS011;31507;51.494;7.518;2023-02-01T14:16:40;24.08;;;5.20;;
45806;SDS011;31507;51.494;7.518;2023-02-01T14:19:39;26.73;;;4.80;;
45806;SDS011;31507;51.494;7.518;2023-02-01T14:24:52;27.30;;;4.63;;
45806;SDS011;31507;51.494;7.518;2023-02-01T14:27:23;21.05;;;4.20;;
45806;SDS011;31507;51.494;7.518;2023-02-01T14:30:00;23.77;;;4.53;;
45806;SDS011;31507;51.494;7.518;2023-02-01T14:32:35;23.95;;;4.63;;
45806;SDS011;31507;51.494;7.518;2023-02-01T14:35:21;26.38;;;4.30;;
45806;SDS011;31507;51.494;7.518;2023-02-01T14:37:51;23.70;;;4.18;;
45806;SDS011;31507;51.494;7.518;2023-02-01T14:40:20;20.05;;;4.00;;
45806;SDS011;31507;51.494;7.518;2023-02-01T14:42:50;25.95;;;4.82;;
45806;SDS011;31507;51.494;7.518;2023-02-01T14:50:40;29.27;;;5.57;;
45806;SDS011;31507;51.494;7.518;2023-02-01T14:55:36;25.38;;;3.78;;
45806;SDS011;31507;51.494;7.518;2023-02-01T14:58:09;30.05;;;5.10;;
45806;SDS011;31507;51.494;7.518;2023-02-01T15:00:57;26.85;;;4.13;;
45806;SDS011;31507;51.494;7.518;2023-02-01T15:03:36;27.30;;;5.28;;
45806;SDS011;31507;51.494;7.518;2023-02-01T15:06:33;25.60;;;4.65;;
45806;SDS011;31507;51.494;7.518;2023-02-01T15:09:24;27.33;;;3.83;;
45806;SDS011;31507;51.494;7.518;2023-02-01T15:14:19;19.30;;;3.72;;
45806;SDS011;31507;51.494;7.518;2023-02-01T15:16:45;32.75;;;5.88;;
45806;SDS011;31507;51.494;7.518;2023-02-01T15:19:29;25.63;;;4.30;;
45806;SDS011;31507;51.494;7.518;2023-02-01T15:21:58;19.00;;;3.78;;
45806;SDS011;31507;51.494;7.518;2023-02-01T15:24:26;32.45;;;5.53;;
45806;SDS011;31507;51.494;7.518;2023-02-01T15:26:54;25.55;;;5.07;;
45806;SDS011;31507;51.494;7.518;2023-02-01T15:29:22;22.90;;;4.55;;
45806;SDS011;31507;51.494;7.518;2023-02-01T15:31:53;30.60;;;5.35;;
45806;SDS011;31507;51.494;7.518;2023-02-01T15:34:19;20.63;;;4.38;;
45806;SDS011;31507;51.494;7.518;2023-02-01T15:36:45;24.75;;;4.68;;
45806;SDS011;31507;51.494;7.518;2023-02-01T15:39:21;30.42;;;5.22;;
45806;SDS011;31507;51.494;7.518;2023-02-01T15:42:23;25.10;;;5.13;;
45806;SDS011;31507;51.494;7.518;2023-02-01T15:44:45;23.15;;;4.43;;
45806;SDS011;31507;51.494;7.518;2023-02-01T15:47:15;23.25;;;4.47;;
45806;SDS011;31507;51.494;7.518;2023-02-01T15:49:43;28.02;;;5.03;;
45806;SDS011;31507;51.494;7.518;2023-02-01T15:52:20;27.00;;;5.30;;
45806;SDS011;31507;51.494;7.518;2023-02-01T15:55:01;21.63;;;4.85;;
45806;SDS011;31507;51.494;7.518;2023-02-01T15:57:38;21.50;;;4.50;;
45806;SDS011;31507;51.494;7.518;2023-02-01T16:00:06;24.73;;;4.20;;
45806;SDS011;31507;51.494;7.518;2023-02-01T16:02:50;23.15;;;3.95;;
45806;SDS011;31507;51.494;7.518;2023-02-01T16:07:58;23.88;;;4.10;;
45806;SDS011;31507;51.494;7.518;2023-02-01T16:10:31;24.52;;;4.55;;
45806;SDS011;31507;51.494;7.518;2023-02-01T16:12:57;27.23;;;4.65;;
45806;SDS011;31507;51.494;7.518;2023-02-01T16:15:25;23.60;;;3.90;;
45806;SDS011;31507;51.494;7.518;2023-02-01T16:17:55;24.48;;;4.43;;
45806;SDS011;31507;51.494;7.518;2023-02-01T16:20:27;20.30;;;4.47;;
45806;SDS011;31507;51.494;7.518;2023-02-01T16:22:54;23.77;;;4.85;;
45806;SDS011;31507;51.494;7.518;2023-02-01T16:25:21;27.33;;;4.30;;
45806;SDS011;31507;51.494;7.518;2023-02-01T16:27:48;18.42;;;4.60;;
45806;SDS011;31507;51.494;7.518;2023-02-01T16:30:19;18.55;;;4.38;;
45806;SDS011;31507;51.494;7.518;2023-02-01T16:32:48;22.88;;;5.07;;
45806;SDS011;31507;51.494;7.518;2023-02-01T16:35:29;21.92;;;3.92;;
45806;SDS011;31507;51.494;7.518;2023-02-01T16:38:00;21.67;;;6.10;;
45806;SDS011;31507;51.494;7.518;2023-02-01T16:40:40;17.48;;;3.72;;
45806;SDS011;31507;51.494;7.518;2023-02-01T16:43:12;21.38;;;4.22;;
45806;SDS011;31507;51.494;7.518;2023-02-01T16:45:51;24.02;;;4.07;;
45806;SDS011;31507;51.494;7.518;2023-02-01T16:48:36;20.23;;;4.90;;
45806;SDS011;31507;51.494;7.518;2023-02-01T16:51:11;21.48;;;4.53;;
45806;SDS011;31507;51.494;7.518;2023-02-01T16:53:48;27.95;;;5.50;;
45806;SDS011;31507;51.494;7.518;2023-02-01T16:56:15;29.50;;;5.40;;
45806;SDS011;31507;51.494;7.518;2023-02-01T16:58:48;24.95;;;5.82;;
45806;SDS011;31507;51.494;7.518;2023-02-01T17:01:16;22.48;;;5.72;;
45806;SDS011;31507;51.494;7.518;2023-02-01T17:03:43;25.70;;;5.28;;
45806;SDS011;31507;51.494;7.518;2023-02-01T17:06:10;32.47;;;5.50;;
45806;SDS011;31507;51.494;7.518;2023-02-01T17:08:42;25.38;;;5.90;;
45806;SDS011;31507;51.494;7.518;2023-02-01T17:11:14;28.75;;;6.63;;
45806;SDS011;31507;51.494;7.518;2023-02-01T17:13:40;35.60;;;6.70;;
45806;SDS011;31507;51.494;7.518;2023-02-01T17:16:19;28.92;;;7.47;;
45806;SDS011;31507;51.494;7.518;2023-02-01T17:18:51;30.75;;;6.82;;
45806;SDS011;31507;51.494;7.518;2023-02-01T17:21:43;15.77;;;5.18;;
45806;SDS011;31507;51.494;7.518;2023-02-01T17:24:14;24.13;;;6.32;;
45806;SDS011;31507;51.494;7.518;2023-02-01T17:26:41;18.67;;;4.90;;
45806;SDS011;31507;51.494;7.518;2023-02-01T17:29:08;17.48;;;4.05;;
45806;SDS011;31507;51.494;7.518;2023-02-01T17:31:36;21.35;;;4.10;;
45806;SDS011;31507;51.494;7.518;2023-02-01T17:34:08;13.98;;;4.15;;
45806;SDS011;31507;51.494;7.518;2023-02-01T17:36:35;13.57;;;4.25;;
45806;SDS011;31507;51.494;7.518;2023-02-01T17:39:03;14.82;;;3.88;;